Los Coyotes, Texas
Current Conditions -  °F | °C
As of 2:52 PM on Saturday 22 Nov 2014 (Local Time) from KHRL Reporting Station
Overcast Overcast  
Wind Chill: 80°   Ceiling: 4200
Heat Index: 83°   Visibility: 10mi
Dew Point: 69°   Wind: 16mph
Humidity: 69%   Direction: 170°S
Pressure: 29.79"   Gusts: 23mph
Location:  26.4075°N, 97.7282°W
Report Text: KHRL 222052Z 17014G20KT 10SM FEW027 BKN042 OVC049 27/21 A2979 RMK AO2 SLP087 T02670206 56033
Loading
Personal Weather Stations






























Interactive Weather Map New forecast layout! Learn more

10-Day Weather Forecast

Advertisements
Track Severe Weather on mobile